createdAt,value
2018-03-27T00:00:38.807Z,0
2018-03-27T00:01:38.786Z,0
2018-03-27T00:02:38.508Z,0
2018-03-27T00:03:38.484Z,0
2018-03-27T00:04:38.699Z,0
2018-03-27T00:05:38.711Z,0
2018-03-27T00:06:38.388Z,0
2018-03-27T00:07:38.620Z,0
2018-03-27T00:08:38.580Z,0
2018-03-27T00:09:38.567Z,0
2018-03-27T00:10:38.583Z,0
2018-03-27T00:11:38.499Z,0
2018-03-27T00:12:38.469Z,0
2018-03-27T00:13:38.190Z,0
2018-03-27T00:14:38.171Z,0
2018-03-27T00:15:38.389Z,0
2018-03-27T00:16:38.423Z,0
2018-03-27T00:17:38.073Z,0
2018-03-27T00:18:38.051Z,0
2018-03-27T00:19:38.042Z,0
2018-03-27T00:20:37.992Z,0
2018-03-27T00:21:37.954Z,0
2018-03-27T00:22:38.180Z,0
2018-03-27T00:23:38.156Z,0
2018-03-27T00:24:38.118Z,0
2018-03-27T00:25:37.604Z,0
2018-03-27T00:26:37.318Z,0
2018-03-27T00:27:38.035Z,0
2018-03-27T00:28:38.048Z,0
2018-03-27T00:29:37.978Z,0
2018-03-27T00:30:37.202Z,0
2018-03-27T00:31:37.931Z,0
2018-03-27T00:32:37.893Z,0
2018-03-27T00:33:37.610Z,0
2018-03-27T00:34:37.887Z,0
2018-03-27T00:35:37.794Z,0
2018-03-27T00:36:37.520Z,0
2018-03-27T00:37:37.242Z,0
2018-03-27T00:38:37.709Z,0
2018-03-27T00:39:37.684Z,0
2018-03-27T00:40:37.658Z,0
2018-03-27T00:41:37.627Z,0
2018-03-27T00:42:37.611Z,0
2018-03-27T00:43:37.076Z,0
2018-03-27T00:44:37.540Z,0
2018-03-27T00:45:37.263Z,0
2018-03-27T00:46:37.234Z,0
2018-03-27T00:47:36.953Z,0
2018-03-27T00:48:37.421Z,0
2018-03-27T00:49:37.145Z,0
2018-03-27T00:50:37.366Z,0
2018-03-27T00:51:37.338Z,0
2018-03-27T00:52:37.351Z,0
2018-03-27T00:53:37.280Z,0
2018-03-27T00:54:37.015Z,0
2018-03-27T00:55:36.968Z,0
2018-03-27T00:56:36.703Z,0
2018-03-27T00:57:36.909Z,0
2018-03-27T00:58:36.387Z,0
2018-03-27T00:59:36.855Z,0
2018-03-27T01:00:37.080Z,0
2018-03-27T01:01:36.795Z,0
2018-03-27T01:02:37.021Z,0
2018-03-27T01:03:36.740Z,0
2018-03-27T01:04:36.715Z,0
2018-03-27T01:05:36.699Z,0
2018-03-27T01:06:36.654Z,0
2018-03-27T01:07:36.373Z,0
2018-03-27T01:08:36.840Z,0
2018-03-27T01:09:36.816Z,0
2018-03-27T01:10:36.545Z,0
2018-03-27T01:11:36.758Z,0
2018-03-27T01:12:36.727Z,0
2018-03-27T01:13:36.709Z,0
2018-03-27T01:14:36.678Z,0
2018-03-27T01:15:36.393Z,0
2018-03-27T01:16:36.620Z,0
2018-03-27T01:17:36.637Z,0
2018-03-27T01:18:36.558Z,0
2018-03-27T01:19:35.775Z,0
2018-03-27T01:20:36.254Z,0
2018-03-27T01:21:36.469Z,0
2018-03-27T01:22:36.439Z,0
2018-03-27T01:23:36.160Z,0
2018-03-27T01:24:35.895Z,0
2018-03-27T01:25:36.107Z,0
2018-03-27T01:26:36.396Z,0
2018-03-27T01:27:36.299Z,0
2018-03-27T01:28:36.260Z,0
2018-03-27T01:29:36.235Z,0
2018-03-27T01:30:35.959Z,0
2018-03-27T01:31:36.176Z,0
2018-03-27T01:32:36.137Z,0
2018-03-27T01:33:36.113Z,0
2018-03-27T01:34:35.840Z,0
2018-03-27T01:35:36.063Z,0
2018-03-27T01:36:36.030Z,0
2018-03-27T01:37:35.998Z,0
2018-03-27T01:38:35.725Z,0
2018-03-27T01:39:35.439Z,0
2018-03-27T01:40:35.657Z,0
2018-03-27T01:41:35.874Z,0
2018-03-27T01:42:35.602Z,0
2018-03-27T01:43:35.328Z,0
2018-03-27T01:44:35.299Z,0
2018-03-27T01:45:35.514Z,0
2018-03-27T01:46:35.747Z,0
2018-03-27T01:47:35.697Z,0
2018-03-27T01:48:35.684Z,0
2018-03-27T01:49:35.649Z,0
2018-03-27T01:50:35.364Z,0
2018-03-27T01:51:35.596Z,0
2018-03-27T01:52:35.358Z,0
2018-03-27T01:53:35.528Z,0
2018-03-27T01:54:35.011Z,0
2018-03-27T01:55:35.471Z,0
2018-03-27T01:56:34.964Z,0
2018-03-27T01:57:34.917Z,0
2018-03-27T01:58:35.376Z,0
2018-03-27T01:59:35.356Z,0
2018-03-27T02:00:35.076Z,0
2018-03-27T02:01:35.290Z,0
2018-03-27T02:02:35.267Z,0
2018-03-27T02:03:34.985Z,0
2018-03-27T02:04:35.211Z,0
2018-03-27T02:05:35.173Z,0
2018-03-27T02:06:35.143Z,0
2018-03-27T02:07:35.113Z,0
2018-03-27T02:08:35.090Z,0
2018-03-27T02:09:34.806Z,0
2018-03-27T02:10:35.033Z,0
2018-03-27T02:11:34.748Z,0
2018-03-27T02:12:34.719Z,0
2018-03-27T02:13:34.695Z,0
2018-03-27T02:14:34.687Z,0
2018-03-27T02:15:34.629Z,0
2018-03-27T02:16:34.854Z,0
2018-03-27T02:17:34.579Z,0
2018-03-27T02:18:34.292Z,0
2018-03-27T02:19:34.772Z,0
2018-03-27T02:20:34.728Z,0
2018-03-27T02:21:34.454Z,0
2018-03-27T02:22:34.536Z,0
2018-03-27T02:23:34.396Z,0
2018-03-27T02:24:34.367Z,0
2018-03-27T02:25:34.344Z,0
2018-03-27T02:26:34.071Z,0
2018-03-27T02:27:34.523Z,0
2018-03-27T02:28:34.501Z,0
2018-03-27T02:29:33.977Z,0
2018-03-27T02:30:34.200Z,0
2018-03-27T02:31:34.416Z,0
2018-03-27T02:32:34.387Z,0
2018-03-27T02:33:34.383Z,0
2018-03-27T02:34:34.336Z,0
2018-03-27T02:35:34.301Z,0
2018-03-27T02:36:34.277Z,0
2018-03-27T02:37:34.240Z,0
2018-03-27T02:38:34.231Z,0
2018-03-27T02:39:33.929Z,0
2018-03-27T02:40:34.152Z,0
2018-03-27T02:41:34.142Z,0
2018-03-27T02:42:33.846Z,0
2018-03-27T02:43:33.566Z,0
2018-03-27T02:44:33.532Z,0
2018-03-27T02:45:33.509Z,0
2018-03-27T02:46:33.484Z,0
2018-03-27T02:47:33.956Z,0
2018-03-27T02:48:33.679Z,0
2018-03-27T02:49:33.883Z,0
2018-03-27T02:50:33.864Z,0
2018-03-27T02:51:33.840Z,0
2018-03-27T02:52:33.798Z,0
2018-03-27T02:53:33.847Z,0
2018-03-27T02:54:33.564Z,0
2018-03-27T02:55:33.723Z,0
2018-03-27T02:56:33.718Z,0
2018-03-27T02:57:33.414Z,0
2018-03-27T02:58:33.623Z,0
2018-03-27T02:59:33.411Z,0
2018-03-27T03:00:32.828Z,0
2018-03-27T03:01:33.549Z,0
2018-03-27T03:02:33.256Z,0
2018-03-27T03:03:33.488Z,0
2018-03-27T03:04:33.459Z,0
2018-03-27T03:05:33.420Z,0
2018-03-27T03:06:33.153Z,0
2018-03-27T03:07:32.860Z,0
2018-03-27T03:08:32.830Z,0
2018-03-27T03:09:33.298Z,0
2018-03-27T03:10:33.267Z,0
2018-03-27T03:11:32.988Z,0
2018-03-27T03:12:33.213Z,0
2018-03-27T03:13:33.182Z,0
2018-03-27T03:14:32.916Z,0
2018-03-27T03:15:32.907Z,0
2018-03-27T03:16:33.088Z,0
2018-03-27T03:17:33.065Z,0
2018-03-27T03:18:32.531Z,0
2018-03-27T03:19:33.012Z,0
2018-03-27T03:20:32.731Z,0
2018-03-27T03:21:32.946Z,0
2018-03-27T03:22:32.925Z,0
2018-03-27T03:23:32.887Z,0
2018-03-27T03:24:32.360Z,0
2018-03-27T03:25:32.826Z,0
2018-03-27T03:26:32.542Z,0
2018-03-27T03:27:32.526Z,0
2018-03-27T03:28:32.570Z,0
2018-03-27T03:29:32.464Z,0
2018-03-27T03:30:32.434Z,0
2018-03-27T03:31:32.654Z,0
2018-03-27T03:32:32.366Z,0
2018-03-27T03:33:32.086Z,0
2018-03-27T03:34:32.559Z,0
2018-03-27T03:35:32.530Z,0
2018-03-27T03:36:32.496Z,0
2018-03-27T03:37:32.218Z,0
2018-03-27T03:38:32.188Z,0
2018-03-27T03:39:32.404Z,0
2018-03-27T03:40:32.405Z,0
2018-03-27T03:41:32.103Z,0
2018-03-27T03:42:32.327Z,0
2018-03-27T03:43:32.283Z,0
2018-03-27T03:44:32.018Z,0
2018-03-27T03:45:32.229Z,0
2018-03-27T03:46:31.698Z,0
2018-03-27T03:47:32.165Z,0
2018-03-27T03:48:32.136Z,0
2018-03-27T03:49:31.863Z,0
2018-03-27T03:50:31.832Z,0
2018-03-27T03:51:32.064Z,0
2018-03-27T03:52:32.058Z,0
2018-03-27T03:53:31.740Z,0
2018-03-27T03:54:31.460Z,0
2018-03-27T03:55:32.071Z,0
2018-03-27T03:56:31.647Z,0
2018-03-27T03:57:31.617Z,0
2018-03-27T03:58:31.592Z,0
2018-03-27T03:59:31.060Z,0
2018-03-27T04:00:31.973Z,0
2018-03-27T04:01:31.251Z,0
2018-03-27T04:02:31.717Z,0
2018-03-27T04:03:31.697Z,0
2018-03-27T04:04:31.412Z,0
2018-03-27T04:05:31.145Z,0
2018-03-27T04:06:31.605Z,0
2018-03-27T04:07:31.569Z,0
2018-03-27T04:08:31.042Z,0
2018-03-27T04:09:31.510Z,0
2018-03-27T04:10:31.495Z,0
2018-03-27T04:11:31.549Z,0
2018-03-27T04:12:31.197Z,0
2018-03-27T04:13:30.903Z,0
2018-03-27T04:14:31.114Z,0
2018-03-27T04:15:31.367Z,0
2018-03-27T04:16:31.070Z,0
2018-03-27T04:17:30.521Z,0
2018-03-27T04:18:31.240Z,0
2018-03-27T04:19:30.961Z,0
2018-03-27T04:20:31.186Z,0
2018-03-27T04:21:31.156Z,0
2018-03-27T04:22:31.122Z,0
2018-03-27T04:23:30.601Z,0
2018-03-27T04:24:30.815Z,0
2018-03-27T04:25:31.051Z,0
2018-03-27T04:26:31.018Z,0
2018-03-27T04:27:30.716Z,0
2018-03-27T04:28:30.947Z,0
2018-03-27T04:29:30.667Z,0
2018-03-27T04:30:30.883Z,0
2018-03-27T04:31:30.848Z,0
2018-03-27T04:32:30.576Z,0
2018-03-27T04:33:30.545Z,0
2018-03-27T04:34:30.516Z,0
2018-03-27T04:35:30.484Z,0
2018-03-27T04:36:30.460Z,0
2018-03-27T04:37:30.676Z,0
2018-03-27T04:38:30.634Z,0
2018-03-27T04:39:30.644Z,0
2018-03-27T04:40:30.578Z,0
2018-03-27T04:41:30.054Z,0
2018-03-27T04:42:30.282Z,0
2018-03-27T04:43:30.503Z,0
2018-03-27T04:44:30.211Z,0
2018-03-27T04:45:30.441Z,0
2018-03-27T04:46:30.160Z,0
2018-03-27T04:47:30.376Z,0
2018-03-27T04:48:30.340Z,0
2018-03-27T04:49:30.355Z,0
2018-03-27T04:50:30.037Z,0
2018-03-27T04:51:30.000Z,0
2018-03-27T04:52:30.093Z,0
2018-03-27T04:53:30.297Z,0
2018-03-27T04:54:30.282Z,0
2018-03-27T04:55:30.508Z,0
2018-03-27T04:56:30.100Z,0
2018-03-27T04:57:29.825Z,0
2018-03-27T04:58:30.041Z,0
2018-03-27T04:59:29.507Z,0
2018-03-27T05:00:28.985Z,0
2018-03-27T05:01:29.458Z,0
2018-03-27T05:02:29.183Z,0
2018-03-27T05:03:29.638Z,0
2018-03-27T05:04:29.607Z,0
2018-03-27T05:05:29.840Z,0
2018-03-27T05:06:29.800Z,5
2018-03-27T05:07:29.016Z,5
2018-03-27T05:08:29.487Z,5
2018-03-27T05:09:29.467Z,5
2018-03-27T05:10:29.184Z,5
2018-03-27T05:11:29.648Z,5
2018-03-27T05:12:29.121Z,10
2018-03-27T05:13:29.090Z,10
2018-03-27T05:14:29.052Z,10
2018-03-27T05:15:29.526Z,10
2018-03-27T05:16:29.496Z,15
2018-03-27T05:17:29.213Z,15
2018-03-27T05:18:28.935Z,15
2018-03-27T05:19:29.406Z,20
2018-03-27T05:20:29.385Z,20
2018-03-27T05:21:29.342Z,20
2018-03-27T05:22:29.312Z,25
2018-03-27T05:23:29.094Z,25
2018-03-27T05:24:28.756Z,25
2018-03-27T05:25:29.232Z,30
2018-03-27T05:26:29.340Z,30
2018-03-27T05:27:29.159Z,35
2018-03-27T05:28:29.129Z,35
2018-03-27T05:29:28.353Z,40
2018-03-27T05:30:29.073Z,40
2018-03-27T05:31:29.039Z,45
2018-03-27T05:32:28.514Z,45
2018-03-27T05:33:28.545Z,50
2018-03-27T05:34:28.704Z,50
2018-03-27T05:35:28.924Z,55
2018-03-27T05:36:28.891Z,55
2018-03-27T05:37:28.864Z,60
2018-03-27T05:38:28.835Z,60
2018-03-27T05:39:28.811Z,65
2018-03-27T05:40:28.829Z,70
2018-03-27T05:41:28.740Z,70
2018-03-27T05:42:28.469Z,75
2018-03-27T05:43:28.688Z,75
2018-03-27T05:44:28.405Z,80
2018-03-27T05:45:28.371Z,85
2018-03-27T05:46:28.336Z,85
2018-03-27T05:47:28.059Z,90
2018-03-27T05:48:28.026Z,90
2018-03-27T05:49:28.488Z,95
2018-03-27T05:50:28.471Z,95
2018-03-27T05:51:27.931Z,100
2018-03-27T05:52:28.409Z,100
2018-03-27T05:53:28.369Z,105
2018-03-27T05:54:27.877Z,110
2018-03-27T05:55:28.321Z,115
2018-03-27T05:56:28.035Z,120
2018-03-27T05:57:27.814Z,120
2018-03-27T05:58:28.269Z,120
2018-03-27T05:59:29.650Z,125
2018-03-27T06:00:28.135Z,130
2018-03-27T06:01:27.637Z,135
2018-03-27T06:02:28.101Z,140
2018-03-27T06:03:27.821Z,145
2018-03-27T06:04:27.810Z,150
2018-03-27T06:05:28.037Z,155
2018-03-27T06:06:27.732Z,160
2018-03-27T06:07:27.968Z,165
2018-03-27T06:08:27.733Z,170
2018-03-27T06:09:27.676Z,175
2018-03-27T06:10:27.614Z,180
2018-03-27T06:11:27.586Z,185
2018-03-27T06:12:27.558Z,190
2018-03-27T06:13:27.778Z,190
2018-03-27T06:14:27.511Z,195
2018-03-27T06:15:27.466Z,205
2018-03-27T06:16:27.430Z,210
2018-03-27T06:17:27.405Z,215
2018-03-27T06:18:27.626Z,225
2018-03-27T06:19:27.360Z,235
2018-03-27T06:20:27.558Z,245
2018-03-27T06:21:27.039Z,250
2018-03-27T06:22:27.502Z,260
2018-03-27T06:23:27.469Z,270
2018-03-27T06:24:27.198Z,275
2018-03-27T06:25:26.922Z,290
2018-03-27T06:26:27.493Z,295
2018-03-27T06:27:27.511Z,300
2018-03-27T06:28:27.356Z,305
2018-03-27T06:29:26.545Z,310
2018-03-27T06:30:27.268Z,315
2018-03-27T06:31:27.245Z,320
2018-03-27T06:32:27.205Z,320
2018-03-27T06:33:27.181Z,325
2018-03-27T06:34:26.409Z,325
2018-03-27T06:35:27.125Z,325
2018-03-27T06:36:26.912Z,330
2018-03-27T06:37:26.578Z,330
2018-03-27T06:38:26.799Z,330
2018-03-27T06:39:27.168Z,335
2018-03-27T06:40:26.489Z,335
2018-03-27T06:41:26.953Z,335
2018-03-27T06:42:27.048Z,340
2018-03-27T06:43:26.188Z,345
2018-03-27T06:44:26.729Z,345
2018-03-27T06:45:26.391Z,350
2018-03-27T06:46:26.313Z,355
2018-03-27T06:47:26.546Z,355
2018-03-27T06:48:26.502Z,360
2018-03-27T06:49:26.479Z,355
2018-03-27T06:50:26.455Z,355
2018-03-27T06:51:26.166Z,350
2018-03-27T06:52:26.648Z,350
2018-03-27T06:53:26.370Z,355
2018-03-27T06:54:26.696Z,350
2018-03-27T06:55:26.570Z,355
2018-03-27T06:56:26.800Z,350
2018-03-27T06:57:26.003Z,350
2018-03-27T06:58:26.477Z,345
2018-03-27T06:59:25.969Z,345
2018-03-27T07:00:26.422Z,345
2018-03-27T07:01:26.216Z,345
2018-03-27T07:02:25.911Z,350
2018-03-27T07:03:26.392Z,350
2018-03-27T07:04:26.323Z,355
2018-03-27T07:05:26.379Z,365
2018-03-27T07:06:25.785Z,370
2018-03-27T07:07:25.998Z,375
2018-03-27T07:08:25.972Z,380
2018-03-27T07:09:25.735Z,390
2018-03-27T07:10:25.956Z,395
2018-03-27T07:11:25.883Z,410
2018-03-27T07:12:26.524Z,415
2018-03-27T07:13:25.870Z,420
2018-03-27T07:14:26.109Z,430
2018-03-27T07:15:25.775Z,445
2018-03-27T07:16:25.530Z,455
2018-03-27T07:17:25.965Z,475
2018-03-27T07:18:25.765Z,510
2018-03-27T07:19:25.987Z,520
2018-03-27T07:20:25.717Z,545
2018-03-27T07:21:26.004Z,545
2018-03-27T07:22:25.598Z,545
2018-03-27T07:23:25.797Z,545
2018-03-27T07:24:25.265Z,540
2018-03-27T07:25:24.997Z,530
2018-03-27T07:26:25.725Z,505
2018-03-27T07:27:25.697Z,495
2018-03-27T07:28:25.417Z,490
2018-03-27T07:29:25.400Z,485
2018-03-27T07:30:25.610Z,490
2018-03-27T07:31:25.483Z,500
2018-03-27T07:32:25.124Z,510
2018-03-27T07:33:25.537Z,515
2018-03-27T07:34:25.515Z,505
2018-03-27T07:35:25.231Z,500
2018-03-27T07:36:25.480Z,495
2018-03-27T07:37:25.183Z,490
2018-03-27T07:38:25.415Z,490
2018-03-27T07:39:25.398Z,485
2018-03-27T07:40:25.377Z,490
2018-03-27T07:41:25.332Z,490
2018-03-27T07:42:25.305Z,495
2018-03-27T07:43:25.554Z,505
2018-03-27T07:44:24.863Z,510
2018-03-27T07:45:24.985Z,520
2018-03-27T07:46:24.953Z,530
2018-03-27T07:47:25.185Z,555
2018-03-27T07:48:24.913Z,570
2018-03-27T07:49:24.879Z,590
2018-03-27T07:50:24.858Z,605
2018-03-27T07:51:24.826Z,600
2018-03-27T07:52:24.805Z,585
2018-03-27T07:53:24.780Z,600
2018-03-27T07:54:24.755Z,615
2018-03-27T07:55:24.773Z,625
2018-03-27T07:56:24.703Z,625
2018-03-27T07:57:24.426Z,630
2018-03-27T07:58:24.668Z,620
2018-03-27T07:59:24.381Z,615
2018-03-27T08:00:24.850Z,620
2018-03-27T08:01:24.828Z,615
2018-03-27T08:02:24.803Z,620
2018-03-27T08:03:24.793Z,635
2018-03-27T08:04:24.764Z,640
2018-03-27T08:05:24.734Z,625
2018-03-27T08:06:24.457Z,590
2018-03-27T08:07:24.689Z,555
2018-03-27T08:08:23.912Z,540
2018-03-27T08:09:24.634Z,530
2018-03-27T08:10:24.609Z,525
2018-03-27T08:11:24.415Z,520
2018-03-27T08:12:24.317Z,515
2018-03-27T08:13:24.312Z,505
2018-03-27T08:14:24.263Z,490
2018-03-27T08:15:24.236Z,480
2018-03-27T08:16:24.470Z,475
2018-03-27T08:17:23.945Z,465
2018-03-27T08:18:24.417Z,460
2018-03-27T08:19:24.387Z,455
2018-03-27T08:20:23.870Z,455
2018-03-27T08:21:24.092Z,445
2018-03-27T08:22:24.312Z,440
2018-03-27T08:23:24.394Z,435
2018-03-27T08:24:24.515Z,435
2018-03-27T08:25:24.251Z,435
2018-03-27T08:26:24.217Z,430
2018-03-27T08:27:23.701Z,430
2018-03-27T08:28:24.166Z,425
2018-03-27T08:29:24.036Z,425
2018-03-27T08:30:24.124Z,420
2018-03-27T08:31:24.094Z,420
2018-03-27T08:32:24.071Z,415
2018-03-27T08:33:24.132Z,415
2018-03-27T08:34:23.763Z,415
2018-03-27T08:35:23.495Z,415
2018-03-27T08:36:24.092Z,415
2018-03-27T08:37:23.950Z,415
2018-03-27T08:38:23.670Z,420
2018-03-27T08:39:23.902Z,415
2018-03-27T08:40:23.621Z,415
2018-03-27T08:41:23.850Z,415
2018-03-27T08:42:23.826Z,415
2018-03-27T08:43:23.577Z,415
2018-03-27T08:44:23.775Z,415
2018-03-27T08:45:23.499Z,415
2018-03-27T08:46:23.221Z,415
2018-03-27T08:47:23.699Z,420
2018-03-27T08:48:23.673Z,415
2018-03-27T08:49:22.904Z,410
2018-03-27T08:50:23.617Z,410
2018-03-27T08:51:23.105Z,415
2018-03-27T08:52:23.082Z,415
2018-03-27T08:53:23.354Z,415
2018-03-27T08:54:23.520Z,415
2018-03-27T08:55:23.498Z,415
2018-03-27T08:56:23.487Z,415
2018-03-27T08:57:23.195Z,420
2018-03-27T08:58:22.939Z,420
2018-03-27T08:59:23.163Z,420
2018-03-27T09:00:22.870Z,420
2018-03-27T09:01:24.342Z,420
2018-03-27T09:02:24.491Z,420
2018-03-27T09:03:24.746Z,420
2018-03-27T09:04:23.115Z,420
2018-03-27T09:05:23.400Z,425
2018-03-27T09:06:23.410Z,425
2018-03-27T09:07:23.360Z,435
2018-03-27T09:08:23.194Z,435
2018-03-27T09:09:22.897Z,435
2018-03-27T09:10:22.979Z,440
2018-03-27T09:11:22.749Z,440
2018-03-27T09:12:23.784Z,440
2018-03-27T09:13:22.802Z,440
2018-03-27T09:14:23.355Z,445
2018-03-27T09:15:23.163Z,455
2018-03-27T09:16:22.772Z,455
2018-03-27T09:17:22.893Z,455
2018-03-27T09:18:22.424Z,450
2018-03-27T09:19:22.899Z,450
2018-03-27T09:20:22.625Z,455
2018-03-27T09:21:22.878Z,460
2018-03-27T09:22:22.579Z,465
2018-03-27T09:23:22.627Z,465
2018-03-27T09:24:22.530Z,465
2018-03-27T09:25:22.552Z,470
2018-03-27T09:26:22.729Z,465
2018-03-27T09:27:22.459Z,475
2018-03-27T09:28:22.699Z,475
2018-03-27T09:29:22.411Z,470
2018-03-27T09:30:22.638Z,455
2018-03-27T09:31:22.656Z,460
2018-03-27T09:32:22.588Z,480
2018-03-27T09:33:22.563Z,485
2018-03-27T09:34:23.018Z,490
2018-03-27T09:35:22.756Z,495
2018-03-27T09:36:23.129Z,510
2018-03-27T09:37:22.782Z,525
2018-03-27T09:38:22.745Z,540
2018-03-27T09:39:22.817Z,535
2018-03-27T09:40:22.384Z,515
2018-03-27T09:41:22.378Z,505
2018-03-27T09:42:22.340Z,520
2018-03-27T09:43:21.817Z,495
2018-03-27T09:44:22.290Z,465
2018-03-27T09:45:22.293Z,485
2018-03-27T09:46:22.241Z,495
2018-03-27T09:47:22.231Z,515
2018-03-27T09:48:21.947Z,530
2018-03-27T09:49:22.171Z,535
2018-03-27T09:50:21.902Z,540
2018-03-27T09:51:21.924Z,550
2018-03-27T09:52:21.861Z,560
2018-03-27T09:53:21.824Z,565
2018-03-27T09:54:22.160Z,575
2018-03-27T09:55:21.351Z,545
2018-03-27T09:56:22.004Z,520
2018-03-27T09:57:21.739Z,565
2018-03-27T09:58:21.997Z,625
2018-03-27T09:59:21.940Z,660
2018-03-27T10:00:21.422Z,645
2018-03-27T10:01:21.900Z,635
2018-03-27T10:02:23.728Z,630
2018-03-27T10:03:21.848Z,635
2018-03-27T10:04:21.588Z,640
2018-03-27T10:05:21.302Z,655
2018-03-27T10:06:21.024Z,655
2018-03-27T10:07:21.500Z,645
2018-03-27T10:08:21.486Z,630
2018-03-27T10:09:21.549Z,635
2018-03-27T10:10:20.688Z,650
2018-03-27T10:11:21.972Z,665
2018-03-27T10:12:21.664Z,675
2018-03-27T10:13:21.408Z,700
2018-03-27T10:14:21.094Z,725
2018-03-27T10:15:21.564Z,740
2018-03-27T10:16:21.346Z,785
2018-03-27T10:17:21.270Z,810
2018-03-27T10:18:21.514Z,815
2018-03-27T10:19:21.233Z,830
2018-03-27T10:20:21.473Z,845
2018-03-27T10:21:21.431Z,875
2018-03-27T10:22:20.988Z,885
2018-03-27T10:23:21.394Z,870
2018-03-27T10:24:21.121Z,870
2018-03-27T10:25:21.096Z,825
2018-03-27T10:26:20.841Z,770
2018-03-27T10:27:21.124Z,740
2018-03-27T10:28:21.038Z,750
2018-03-27T10:29:21.270Z,770
2018-03-27T10:30:20.996Z,815
2018-03-27T10:31:20.726Z,870
2018-03-27T10:32:21.197Z,990
2018-03-27T10:33:20.681Z,1115
2018-03-27T10:34:20.918Z,1185
2018-03-27T10:35:20.391Z,1200
2018-03-27T10:36:20.620Z,1200
2018-03-27T10:37:20.604Z,1175
2018-03-27T10:38:20.585Z,1140
2018-03-27T10:39:20.560Z,1105
2018-03-27T10:40:20.799Z,1025
2018-03-27T10:41:20.275Z,930
2018-03-27T10:42:20.994Z,875
2018-03-27T10:43:20.728Z,860
2018-03-27T10:44:20.958Z,855
2018-03-27T10:45:20.998Z,835
2018-03-27T10:46:20.971Z,835
2018-03-27T10:47:20.654Z,840
2018-03-27T10:48:20.889Z,830
2018-03-27T10:49:20.873Z,840
2018-03-27T10:50:20.843Z,835
2018-03-27T10:51:20.833Z,835
2018-03-27T10:52:20.808Z,855
2018-03-27T10:53:20.779Z,905
2018-03-27T10:54:20.772Z,980
2018-03-27T10:55:20.513Z,1045
2018-03-27T10:56:20.485Z,1105
2018-03-27T10:57:20.713Z,1145
2018-03-27T10:58:20.268Z,1140
2018-03-27T10:59:20.430Z,1150
2018-03-27T11:00:20.413Z,1130
2018-03-27T11:01:20.142Z,1095
2018-03-27T11:02:20.695Z,1075
2018-03-27T11:03:20.101Z,1055
2018-03-27T11:04:20.584Z,1060
2018-03-27T11:05:20.570Z,1065
2018-03-27T11:06:20.554Z,1050
2018-03-27T11:07:20.290Z,1010
2018-03-27T11:08:19.762Z,980
2018-03-27T11:09:20.249Z,980
2018-03-27T11:10:20.241Z,990
2018-03-27T11:11:20.210Z,1015
2018-03-27T11:12:20.442Z,1010
2018-03-27T11:13:19.918Z,995
2018-03-27T11:14:19.907Z,980
2018-03-27T11:15:20.141Z,965
2018-03-27T11:16:20.389Z,975
2018-03-27T11:17:20.359Z,965
2018-03-27T11:18:20.335Z,910
2018-03-27T11:19:20.325Z,860
2018-03-27T11:20:19.813Z,800
2018-03-27T11:21:19.787Z,740
2018-03-27T11:22:20.014Z,715
2018-03-27T11:23:19.808Z,740
2018-03-27T11:24:19.734Z,760
2018-03-27T11:25:19.960Z,760
2018-03-27T11:26:20.204Z,735
2018-03-27T11:27:19.920Z,710
2018-03-27T11:28:19.916Z,675
2018-03-27T11:29:19.768Z,650
2018-03-27T11:30:19.869Z,625
2018-03-27T11:31:19.865Z,590
2018-03-27T11:32:19.852Z,570
2018-03-27T11:33:19.828Z,555
2018-03-27T11:34:19.795Z,560
2018-03-27T11:35:20.029Z,600
2018-03-27T11:36:19.760Z,705
2018-03-27T11:37:19.755Z,820
2018-03-27T11:38:19.723Z,915
2018-03-27T11:39:19.701Z,955
2018-03-27T11:40:19.940Z,965
2018-03-27T11:41:19.672Z,930
2018-03-27T11:42:19.652Z,890
2018-03-27T11:43:19.634Z,860
2018-03-27T11:44:19.615Z,880
2018-03-27T11:45:19.844Z,935
2018-03-27T11:46:19.343Z,990
2018-03-27T11:47:19.607Z,1030
2018-03-27T11:48:19.600Z,1045
2018-03-27T11:49:19.520Z,1020
2018-03-27T11:50:19.746Z,980
2018-03-27T11:51:19.731Z,940
2018-03-27T11:52:19.470Z,910
2018-03-27T11:53:18.950Z,930
2018-03-27T11:54:19.684Z,965
2018-03-27T11:55:19.419Z,1000
2018-03-27T11:56:19.650Z,1020
2018-03-27T11:57:19.630Z,1035
2018-03-27T11:58:19.613Z,1080
2018-03-27T11:59:19.601Z,1075
2018-03-27T12:00:19.326Z,1075
2018-03-27T12:01:19.557Z,1080
2018-03-27T12:02:19.536Z,1085
2018-03-27T12:03:19.523Z,1100
2018-03-27T12:04:19.498Z,1110
2018-03-27T12:05:18.746Z,1085
2018-03-27T12:06:19.225Z,1045
2018-03-27T12:07:19.451Z,1005
2018-03-27T12:08:19.433Z,1000
2018-03-27T12:09:19.435Z,1015
2018-03-27T12:10:18.906Z,1000
2018-03-27T12:11:19.159Z,970
2018-03-27T12:12:19.148Z,945
2018-03-27T12:13:19.356Z,915
2018-03-27T12:14:19.125Z,890
2018-03-27T12:15:19.221Z,865
2018-03-27T12:16:19.058Z,845
2018-03-27T12:17:19.040Z,815
2018-03-27T12:18:19.270Z,795
2018-03-27T12:19:19.004Z,780
2018-03-27T12:20:19.047Z,765
2018-03-27T12:21:19.223Z,765
2018-03-27T12:22:18.765Z,765
2018-03-27T12:23:19.198Z,765
2018-03-27T12:24:19.162Z,770
2018-03-27T12:25:18.902Z,775
2018-03-27T12:26:19.132Z,775
2018-03-27T12:27:19.117Z,760
2018-03-27T12:28:18.849Z,740
2018-03-27T12:29:18.586Z,705
2018-03-27T12:30:19.051Z,670
2018-03-27T12:31:18.791Z,630
2018-03-27T12:32:18.525Z,585
2018-03-27T12:33:19.009Z,540
2018-03-27T12:34:18.981Z,500
2018-03-27T12:35:19.045Z,485
2018-03-27T12:36:18.958Z,465
2018-03-27T12:37:18.936Z,460
2018-03-27T12:38:18.915Z,470
2018-03-27T12:39:18.903Z,485
2018-03-27T12:40:18.628Z,510
2018-03-27T12:41:18.374Z,540
2018-03-27T12:42:19.002Z,590
2018-03-27T12:43:18.996Z,640
2018-03-27T12:44:18.819Z,690
2018-03-27T12:45:18.542Z,730
2018-03-27T12:46:18.387Z,755
2018-03-27T12:47:19.263Z,780
2018-03-27T12:48:18.734Z,815
2018-03-27T12:49:18.725Z,825
2018-03-27T12:50:18.440Z,815
2018-03-27T12:51:18.972Z,800
2018-03-27T12:52:18.656Z,820
2018-03-27T12:53:18.504Z,825
2018-03-27T12:54:19.340Z,785
2018-03-27T12:55:18.222Z,730
2018-03-27T12:56:18.556Z,685
2018-03-27T12:57:18.713Z,620
2018-03-27T12:58:18.572Z,560
2018-03-27T12:59:18.530Z,510
2018-03-27T13:00:18.272Z,485
2018-03-27T13:01:18.490Z,470
2018-03-27T13:02:17.976Z,470
2018-03-27T13:03:18.643Z,475
2018-03-27T13:04:18.355Z,495
2018-03-27T13:05:18.413Z,535
2018-03-27T13:06:18.360Z,580
2018-03-27T13:07:18.145Z,620
2018-03-27T13:08:18.389Z,675
2018-03-27T13:09:18.346Z,735
2018-03-27T13:10:18.319Z,800
2018-03-27T13:11:18.060Z,850
2018-03-27T13:12:18.282Z,890
2018-03-27T13:13:18.462Z,890
2018-03-27T13:14:17.996Z,915
2018-03-27T13:15:18.245Z,950
2018-03-27T13:16:18.623Z,935
2018-03-27T13:17:17.961Z,925
2018-03-27T13:18:18.951Z,930
2018-03-27T13:19:18.283Z,955
2018-03-27T13:20:18.471Z,980
2018-03-27T13:21:17.871Z,990
2018-03-27T13:22:17.593Z,965
2018-03-27T13:23:17.831Z,920
2018-03-27T13:24:18.590Z,905
2018-03-27T13:25:17.764Z,905
2018-03-27T13:26:17.518Z,940
2018-03-27T13:27:18.004Z,975
2018-03-27T13:28:17.980Z,1025
2018-03-27T13:29:17.474Z,1050
2018-03-27T13:30:17.446Z,1050
2018-03-27T13:31:17.679Z,1015
2018-03-27T13:32:18.344Z,970
2018-03-27T13:33:17.793Z,945
2018-03-27T13:34:17.641Z,940
2018-03-27T13:35:17.912Z,930
2018-03-27T13:36:17.663Z,925
2018-03-27T13:37:17.836Z,875
2018-03-27T13:38:17.561Z,775
2018-03-27T13:39:17.802Z,700
2018-03-27T13:40:18.085Z,655
2018-03-27T13:41:17.511Z,625
2018-03-27T13:42:17.494Z,595
2018-03-27T13:43:17.224Z,575
2018-03-27T13:44:17.711Z,600
2018-03-27T13:45:17.692Z,670
2018-03-27T13:46:17.422Z,730
2018-03-27T13:47:17.783Z,705
2018-03-27T13:48:17.395Z,630
2018-03-27T13:49:17.628Z,550
2018-03-27T13:50:17.354Z,525
2018-03-27T13:51:17.332Z,540
2018-03-27T13:52:17.069Z,570
2018-03-27T13:53:17.314Z,585
2018-03-27T13:54:17.282Z,585
2018-03-27T13:55:17.518Z,575
2018-03-27T13:56:16.998Z,535
2018-03-27T13:57:17.481Z,500
2018-03-27T13:58:17.210Z,470
2018-03-27T13:59:17.258Z,460
2018-03-27T14:00:17.453Z,440
2018-03-27T14:01:17.406Z,415
2018-03-27T14:02:17.387Z,370
2018-03-27T14:03:16.867Z,330
2018-03-27T14:04:17.406Z,305
2018-03-27T14:05:17.335Z,300
2018-03-27T14:06:16.821Z,285
2018-03-27T14:07:17.289Z,280